createdAt,value
2018-02-22T00:00:54.780Z,23.85
2018-02-22T00:03:23.085Z,23.63
2018-02-22T00:05:51.364Z,24.10
2018-02-22T00:08:20.611Z,24.10
2018-02-22T00:10:48.888Z,23.23
2018-02-22T00:13:17.150Z,22.85
2018-02-22T00:15:45.451Z,22.80
2018-02-22T00:18:13.768Z,23.20
2018-02-22T00:20:42.096Z,21.83
2018-02-22T00:23:10.414Z,22.40
2018-02-22T00:25:38.706Z,21.50
2018-02-22T00:28:07.019Z,21.87
2018-02-22T00:30:35.280Z,21.77
2018-02-22T00:33:03.592Z,22.43
2018-02-22T00:35:31.883Z,22.30
2018-02-22T00:38:00.199Z,21.43
2018-02-22T00:40:28.492Z,23.00
2018-02-22T00:42:56.746Z,23.00
2018-02-22T00:45:25.074Z,22.62
2018-02-22T00:47:53.388Z,22.33
2018-02-22T00:50:21.683Z,21.30
2018-02-22T00:52:49.948Z,22.33
2018-02-22T00:55:18.240Z,21.83
2018-02-22T00:57:46.511Z,21.40
2018-02-22T01:00:14.809Z,20.90
2018-02-22T01:02:43.079Z,21.77
2018-02-22T01:05:11.426Z,22.20
2018-02-22T01:07:39.680Z,21.73
2018-02-22T01:10:07.992Z,22.13
2018-02-22T01:12:36.261Z,21.70
2018-02-22T01:15:04.597Z,17.67
2018-02-22T01:17:32.831Z,22.47
2018-02-22T01:20:01.099Z,22.27
2018-02-22T01:22:29.395Z,23.10
2018-02-22T01:24:57.687Z,20.70
2018-02-22T01:27:25.988Z,20.95
2018-02-22T01:29:54.287Z,21.13
2018-02-22T01:32:22.559Z,21.17
2018-02-22T01:34:50.831Z,22.23
2018-02-22T01:37:19.126Z,21.58
2018-02-22T01:39:47.389Z,22.73
2018-02-22T01:42:15.687Z,19.58
2018-02-22T01:44:43.990Z,20.80
2018-02-22T01:47:12.264Z,20.10
2018-02-22T01:49:40.563Z,19.80
2018-02-22T01:52:08.830Z,18.37
2018-02-22T01:54:37.143Z,20.60
2018-02-22T01:57:05.394Z,20.37
2018-02-22T01:59:33.741Z,19.90
2018-02-22T02:02:01.989Z,20.40
2018-02-22T02:04:30.311Z,19.77
2018-02-22T02:06:58.616Z,20.20
2018-02-22T02:09:26.901Z,19.60
2018-02-22T02:11:55.208Z,20.10
2018-02-22T02:14:23.488Z,19.27
2018-02-22T02:16:51.795Z,16.40
2018-02-22T02:19:20.068Z,19.40
2018-02-22T02:21:48.395Z,19.87
2018-02-22T02:24:16.667Z,17.75
2018-02-22T02:26:44.956Z,18.73
2018-02-22T02:29:13.230Z,19.33
2018-02-22T02:31:41.912Z,18.92
2018-02-22T02:34:10.229Z,19.10
2018-02-22T02:36:38.494Z,17.80
2018-02-22T02:39:06.819Z,17.27
2018-02-22T02:41:35.103Z,17.33
2018-02-22T02:44:03.396Z,17.03
2018-02-22T02:46:31.674Z,17.03
2018-02-22T02:48:59.978Z,17.37
2018-02-22T02:51:28.256Z,16.70
2018-02-22T02:53:56.545Z,16.00
2018-02-22T02:56:24.839Z,16.57
2018-02-22T02:58:53.142Z,15.27
2018-02-22T03:01:21.427Z,15.10
2018-02-22T03:03:49.717Z,16.17
2018-02-22T03:06:17.991Z,16.37
2018-02-22T03:08:46.263Z,16.33
2018-02-22T03:11:14.551Z,15.60
2018-02-22T03:13:43.140Z,14.80
2018-02-22T03:16:11.462Z,14.77
2018-02-22T03:18:39.714Z,14.33
2018-02-22T03:21:08.048Z,14.70
2018-02-22T03:23:36.332Z,15.00
2018-02-22T03:26:04.951Z,14.95
2018-02-22T03:28:33.280Z,15.70
2018-02-22T03:31:01.554Z,13.90
2018-02-22T03:33:29.844Z,15.27
2018-02-22T03:35:58.123Z,14.30
2018-02-22T03:38:26.436Z,13.80
2018-02-22T03:40:54.714Z,13.60
2018-02-22T03:43:23.039Z,13.85
2018-02-22T03:45:51.321Z,14.63
2018-02-22T03:48:19.635Z,14.85
2018-02-22T03:50:47.910Z,14.18
2018-02-22T03:53:16.222Z,13.37
2018-02-22T03:55:44.503Z,14.03
2018-02-22T03:58:12.886Z,13.85
2018-02-22T04:00:41.149Z,14.30
2018-02-22T04:03:09.412Z,14.05
2018-02-22T04:05:37.739Z,13.83
2018-02-22T04:08:06.001Z,14.03
2018-02-22T04:10:34.299Z,12.60
2018-02-22T04:13:02.616Z,12.90
2018-02-22T04:15:30.901Z,12.73
2018-02-22T04:17:59.199Z,12.90
2018-02-22T04:20:27.471Z,13.43
2018-02-22T04:22:55.793Z,13.10
2018-02-22T04:25:24.094Z,12.83
2018-02-22T04:27:52.417Z,13.00
2018-02-22T04:30:20.796Z,12.83
2018-02-22T04:32:49.081Z,11.93
2018-02-22T04:35:17.379Z,12.55
2018-02-22T04:37:45.667Z,12.87
2018-02-22T04:40:13.947Z,13.23
2018-02-22T04:42:42.295Z,11.77
2018-02-22T04:45:10.597Z,13.53
2018-02-22T04:47:38.840Z,12.60
2018-02-22T04:50:07.152Z,11.73
2018-02-22T04:52:35.404Z,12.70
2018-02-22T04:55:04.627Z,12.30
2018-02-22T04:57:32.901Z,11.07
2018-02-22T05:00:01.222Z,11.17
2018-02-22T05:02:30.419Z,12.10
2018-02-22T05:04:58.717Z,11.70
2018-02-22T05:07:26.997Z,12.43
2018-02-22T05:09:55.291Z,11.83
2018-02-22T05:12:23.581Z,12.80
2018-02-22T05:14:51.871Z,11.47
2018-02-22T05:17:20.164Z,10.67
2018-02-22T05:19:48.475Z,12.27
2018-02-22T05:22:16.763Z,13.07
2018-02-22T05:24:45.033Z,12.00
2018-02-22T05:27:13.347Z,11.68
2018-02-22T05:29:41.632Z,11.67
2018-02-22T05:32:10.126Z,11.70
2018-02-22T05:34:38.405Z,11.50
2018-02-22T05:37:06.681Z,11.90
2018-02-22T05:39:34.967Z,11.20
2018-02-22T05:42:03.238Z,11.67
2018-02-22T05:44:31.544Z,10.80
2018-02-22T05:46:59.816Z,10.80
2018-02-22T05:49:28.121Z,7.80
2018-02-22T05:51:56.399Z,11.70
2018-02-22T05:54:24.711Z,10.63
2018-02-22T05:56:53.004Z,10.83
2018-02-22T05:59:21.593Z,9.30
2018-02-22T06:01:49.851Z,10.93
2018-02-22T06:04:18.135Z,10.95
2018-02-22T06:06:46.543Z,10.30
2018-02-22T06:09:14.810Z,13.70
2018-02-22T06:11:43.097Z,9.00
2018-02-22T06:14:11.400Z,9.80
2018-02-22T06:16:39.651Z,9.70
2018-02-22T06:19:07.913Z,9.67
2018-02-22T06:21:36.237Z,9.63
2018-02-22T06:24:05.096Z,9.20
2018-02-22T06:26:33.389Z,9.57
2018-02-22T06:29:01.656Z,9.13
2018-02-22T06:31:29.927Z,9.27
2018-02-22T06:33:58.224Z,8.90
2018-02-22T06:36:26.514Z,8.77
2018-02-22T06:38:54.829Z,8.70
2018-02-22T06:41:23.100Z,8.98
2018-02-22T06:43:51.442Z,8.27
2018-02-22T06:46:19.687Z,8.87
2018-02-22T06:48:47.994Z,9.60
2018-02-22T06:51:16.296Z,9.13
2018-02-22T06:53:44.573Z,8.70
2018-02-22T06:56:13.083Z,8.80
2018-02-22T06:58:41.357Z,9.57
2018-02-22T07:01:10.569Z,8.90
2018-02-22T07:03:38.816Z,10.07
2018-02-22T07:06:07.119Z,9.43
2018-02-22T07:08:35.409Z,8.83
2018-02-22T07:11:04.347Z,9.93
2018-02-22T07:13:32.606Z,8.90
2018-02-22T07:16:00.923Z,9.33
2018-02-22T07:18:29.212Z,10.37
2018-02-22T07:20:57.463Z,10.00
2018-02-22T07:23:27.078Z,8.60
2018-02-22T07:25:55.382Z,9.00
2018-02-22T07:28:23.693Z,9.88
2018-02-22T07:30:51.971Z,9.43
2018-02-22T07:33:20.303Z,9.50
2018-02-22T07:35:49.414Z,8.67
2018-02-22T07:38:17.675Z,8.93
2018-02-22T07:40:45.977Z,8.80
2018-02-22T07:43:14.268Z,9.05
2018-02-22T07:45:42.579Z,8.50
2018-02-22T07:48:10.874Z,8.57
2018-02-22T07:50:39.136Z,6.27
2018-02-22T07:53:07.497Z,9.10
2018-02-22T07:55:35.782Z,7.57
2018-02-22T07:58:05.004Z,8.85
2018-02-22T08:00:33.257Z,7.53
2018-02-22T08:03:01.546Z,7.87
2018-02-22T08:05:29.821Z,6.90
2018-02-22T08:07:58.166Z,7.97
2018-02-22T08:10:26.421Z,7.17
2018-02-22T08:12:54.730Z,6.80
2018-02-22T08:15:23.358Z,7.40
2018-02-22T08:17:51.672Z,7.47
2018-02-22T08:20:19.998Z,7.43
2018-02-22T08:22:48.308Z,7.50
2018-02-22T08:25:16.672Z,7.47
2018-02-22T08:27:45.003Z,6.47
2018-02-22T08:30:13.335Z,6.72
2018-02-22T08:32:41.581Z,7.40
2018-02-22T08:35:09.848Z,7.25
2018-02-22T08:37:38.160Z,6.97
2018-02-22T08:40:06.528Z,7.10
2018-02-22T08:42:34.848Z,7.47
2018-02-22T08:45:03.119Z,6.93
2018-02-22T08:47:31.443Z,6.80
2018-02-22T08:49:59.712Z,6.60
2018-02-22T08:52:27.992Z,5.80
2018-02-22T08:54:56.287Z,6.97
2018-02-22T08:57:24.549Z,7.00
2018-02-22T08:59:52.842Z,5.07
2018-02-22T09:02:21.116Z,6.57
2018-02-22T09:04:49.416Z,5.27
2018-02-22T09:07:18.316Z,7.70
2018-02-22T09:09:46.620Z,7.43
2018-02-22T09:12:14.883Z,6.87
2018-02-22T09:14:43.182Z,6.73
2018-02-22T09:17:11.486Z,7.20
2018-02-22T09:19:39.757Z,6.53
2018-02-22T09:22:08.061Z,7.23
2018-02-22T09:24:36.323Z,7.70
2018-02-22T09:27:04.941Z,7.00
2018-02-22T09:29:33.232Z,6.63
2018-02-22T09:32:01.516Z,4.85
2018-02-22T09:34:30.092Z,6.63
2018-02-22T09:36:58.394Z,6.33
2018-02-22T09:39:26.694Z,5.97
2018-02-22T09:41:55.019Z,5.90
2018-02-22T09:44:23.279Z,4.93
2018-02-22T09:46:51.573Z,5.67
2018-02-22T09:49:19.860Z,6.28
2018-02-22T09:51:48.186Z,5.93
2018-02-22T09:54:16.495Z,5.83
2018-02-22T09:56:44.756Z,6.30
2018-02-22T09:59:13.057Z,6.30
2018-02-22T10:01:41.332Z,6.60
2018-02-22T10:04:09.661Z,7.30
2018-02-22T10:06:37.928Z,5.37
2018-02-22T10:09:06.213Z,5.23
2018-02-22T10:11:34.501Z,5.03
2018-02-22T10:14:03.111Z,5.90
2018-02-22T10:16:31.370Z,6.20
2018-02-22T10:18:59.698Z,6.20
2018-02-22T10:21:27.984Z,5.00
2018-02-22T10:23:56.284Z,5.13
2018-02-22T10:26:24.591Z,5.77
2018-02-22T10:28:52.877Z,5.47
2018-02-22T10:31:21.181Z,6.03
2018-02-22T10:33:49.541Z,6.00
2018-02-22T10:36:17.785Z,6.07
2018-02-22T10:38:46.118Z,5.00
2018-02-22T10:41:14.400Z,5.47
2018-02-22T10:43:42.681Z,4.80
2018-02-22T10:46:10.941Z,4.97
2018-02-22T10:48:39.217Z,4.90
2018-02-22T10:51:07.463Z,4.50
2018-02-22T10:53:35.776Z,4.20
2018-02-22T10:56:04.100Z,4.30
2018-02-22T10:58:32.335Z,5.20
2018-02-22T11:01:06.537Z,4.83
2018-02-22T11:03:34.790Z,5.47
2018-02-22T11:06:03.090Z,5.50
2018-02-22T11:08:31.683Z,5.50
2018-02-22T11:11:00.001Z,4.60
2018-02-22T11:13:28.385Z,4.90
2018-02-22T11:15:56.695Z,3.60
2018-02-22T11:18:24.956Z,3.87
2018-02-22T11:20:53.296Z,3.63
2018-02-22T11:23:21.632Z,3.10
2018-02-22T11:25:49.895Z,3.27
2018-02-22T11:28:18.225Z,3.67
2018-02-22T11:30:46.492Z,3.70
2018-02-22T11:33:14.799Z,4.22
2018-02-22T11:35:43.124Z,3.83
2018-02-22T11:38:11.411Z,3.72
2018-02-22T11:40:39.716Z,3.67
2018-02-22T11:43:08.059Z,3.23
2018-02-22T11:45:36.317Z,4.10
2018-02-22T11:48:05.003Z,3.45
2018-02-22T11:50:33.303Z,4.80
2018-02-22T11:53:01.571Z,3.53
2018-02-22T11:55:29.866Z,3.47
2018-02-22T11:57:58.127Z,3.30
2018-02-22T12:00:26.436Z,3.43
2018-02-22T12:02:54.723Z,3.80
2018-02-22T12:05:23.087Z,2.62
2018-02-22T12:07:51.360Z,2.57
2018-02-22T12:10:19.821Z,3.55
2018-02-22T12:12:48.116Z,3.47
2018-02-22T12:15:16.528Z,3.20
2018-02-22T12:17:44.820Z,2.77
2018-02-22T12:20:13.088Z,3.53
2018-02-22T12:22:41.399Z,3.47
2018-02-22T12:25:09.742Z,3.08
2018-02-22T12:27:37.972Z,3.30
2018-02-22T12:30:06.244Z,3.67
2018-02-22T12:32:34.822Z,3.67
2018-02-22T12:35:03.695Z,3.67
2018-02-22T12:37:31.966Z,3.00
2018-02-22T12:40:00.373Z,4.20
2018-02-22T12:42:28.712Z,3.97
2018-02-22T12:44:56.988Z,3.87
2018-02-22T12:47:25.253Z,3.00
2018-02-22T12:49:53.535Z,3.80
2018-02-22T12:52:21.798Z,2.63
2018-02-22T12:54:50.115Z,3.10
2018-02-22T12:57:18.404Z,2.53
2018-02-22T12:59:46.700Z,3.03
2018-02-22T13:02:15.039Z,4.10
2018-02-22T13:04:43.601Z,3.50
2018-02-22T13:07:11.906Z,4.12
2018-02-22T13:09:40.250Z,3.67
2018-02-22T13:12:08.984Z,4.07
2018-02-22T13:14:37.309Z,3.90
2018-02-22T13:17:05.763Z,3.63
2018-02-22T13:19:34.064Z,3.90
2018-02-22T13:22:02.484Z,3.93
2018-02-22T13:24:30.823Z,3.90
2018-02-22T13:26:59.107Z,4.10
2018-02-22T13:29:27.483Z,3.80
2018-02-22T13:31:55.720Z,4.07
2018-02-22T13:34:38.452Z,4.20
2018-02-22T13:37:18.319Z,4.12
2018-02-22T13:39:46.628Z,4.50
2018-02-22T13:42:14.900Z,4.20
2018-02-22T13:44:54.857Z,4.53
2018-02-22T13:47:23.184Z,4.53
2018-02-22T13:50:03.157Z,3.93
2018-02-22T13:52:31.484Z,4.30
2018-02-22T13:54:59.804Z,4.50
2018-02-22T13:57:28.093Z,4.60
2018-02-22T13:59:56.564Z,4.20
2018-02-22T14:02:26.618Z,4.40
2018-02-22T14:04:54.889Z,4.00
2018-02-22T14:07:23.207Z,4.30
2018-02-22T14:09:51.721Z,4.10
2018-02-22T14:12:20.032Z,4.43
2018-02-22T14:14:48.300Z,3.70
2018-02-22T14:17:16.600Z,5.43
2018-02-22T14:19:44.864Z,5.27
2018-02-22T14:22:13.199Z,5.13
2018-02-22T14:24:41.488Z,5.90
2018-02-22T14:27:09.852Z,5.40
2018-02-22T14:29:38.116Z,6.00
2018-02-22T14:32:06.720Z,6.10
2018-02-22T14:34:35.025Z,6.03
2018-02-22T14:37:04.021Z,4.95
2018-02-22T14:39:32.423Z,5.53
2018-02-22T14:42:00.717Z,5.60
2018-02-22T14:44:29.015Z,5.20
2018-02-22T14:46:57.288Z,5.07
2018-02-22T14:49:25.754Z,6.30
2018-02-22T14:51:54.035Z,5.60
2018-02-22T14:54:22.291Z,5.25
2018-02-22T14:56:50.641Z,5.47
2018-02-22T14:59:18.892Z,5.60
2018-02-22T15:01:47.544Z,8.07
2018-02-22T15:04:15.823Z,4.68
2018-02-22T15:06:44.679Z,5.03
2018-02-22T15:09:12.947Z,5.40
2018-02-22T15:11:42.205Z,5.50
2018-02-22T15:14:10.495Z,5.30
2018-02-22T15:16:38.768Z,5.63
2018-02-22T15:19:07.053Z,5.40
2018-02-22T15:21:35.346Z,6.07
2018-02-22T15:24:04.344Z,5.25
2018-02-22T15:26:32.631Z,6.50
2018-02-22T15:29:00.965Z,5.12
2018-02-22T15:31:29.270Z,4.47
2018-02-22T15:33:57.584Z,5.10
2018-02-22T15:36:25.935Z,5.23
2018-02-22T15:38:54.210Z,5.20
2018-02-22T15:41:22.491Z,4.97
2018-02-22T15:43:50.897Z,4.97
2018-02-22T15:46:19.246Z,5.18
2018-02-22T15:48:47.504Z,4.50
2018-02-22T15:51:16.432Z,4.68
2018-02-22T15:53:44.710Z,6.03
2018-02-22T15:56:13.022Z,4.95
2018-02-22T15:58:41.308Z,4.93
2018-02-22T16:01:09.630Z,4.40
2018-02-22T16:03:37.940Z,5.03
2018-02-22T16:06:06.976Z,4.50
2018-02-22T16:08:35.284Z,4.90
2018-02-22T16:11:04.242Z,4.80
2018-02-22T16:13:32.545Z,4.60
2018-02-22T16:16:00.793Z,4.20
2018-02-22T16:18:29.107Z,4.60
2018-02-22T16:20:57.434Z,4.70
2018-02-22T16:23:25.708Z,4.00
2018-02-22T16:25:54.006Z,3.93
2018-02-22T16:28:22.364Z,4.20
2018-02-22T16:30:50.639Z,4.30
2018-02-22T16:33:18.926Z,4.90
2018-02-22T16:35:47.242Z,4.47
2018-02-22T16:38:15.998Z,4.83
2018-02-22T16:40:44.304Z,4.53
2018-02-22T16:43:12.916Z,5.05
2018-02-22T16:45:41.245Z,4.80
2018-02-22T16:48:09.536Z,7.53
2018-02-22T16:50:37.841Z,4.23
2018-02-22T16:53:06.088Z,4.77
2018-02-22T16:55:34.734Z,5.17
2018-02-22T16:58:03.018Z,4.80
2018-02-22T17:00:31.322Z,4.30
2018-02-22T17:02:59.615Z,5.17
2018-02-22T17:05:27.909Z,5.57
2018-02-22T17:07:56.172Z,4.70
2018-02-22T17:10:25.118Z,5.03
2018-02-22T17:12:53.531Z,5.50
2018-02-22T17:15:21.839Z,5.55
2018-02-22T17:17:50.096Z,5.40
2018-02-22T17:20:18.363Z,5.72
2018-02-22T17:22:46.661Z,5.37
2018-02-22T17:25:15.216Z,4.70
2018-02-22T17:27:49.066Z,5.47
2018-02-22T17:30:22.961Z,5.10
2018-02-22T17:32:51.250Z,6.17
2018-02-22T17:38:34.037Z,5.00
2018-02-22T17:41:13.153Z,6.10
2018-02-22T17:43:41.432Z,5.40
2018-02-22T17:46:09.708Z,5.37
2018-02-22T17:48:38.049Z,4.93
2018-02-22T17:51:06.307Z,5.40
2018-02-22T17:53:34.678Z,5.57
2018-02-22T17:56:02.898Z,5.40
2018-02-22T17:58:31.199Z,5.10
2018-02-22T18:00:59.461Z,4.97
2018-02-22T18:03:27.731Z,5.30
2018-02-22T18:05:56.016Z,4.83
2018-02-22T18:08:24.310Z,5.03
2018-02-22T18:10:52.599Z,5.53
2018-02-22T18:13:20.923Z,4.90
2018-02-22T18:15:49.224Z,5.80
2018-02-22T18:18:17.493Z,5.50
2018-02-22T18:20:45.793Z,5.40
2018-02-22T18:23:14.220Z,5.65
2018-02-22T18:25:42.528Z,5.60
2018-02-22T18:28:10.801Z,5.43
2018-02-22T18:30:39.650Z,5.43
2018-02-22T18:33:07.962Z,5.70
2018-02-22T18:35:36.258Z,5.40
2018-02-22T18:38:04.739Z,5.85
2018-02-22T18:40:38.518Z,5.67
2018-02-22T18:43:12.457Z,5.93
2018-02-22T18:45:40.721Z,6.27
2018-02-22T18:48:09.036Z,5.45
2018-02-22T18:50:37.356Z,5.60
2018-02-22T18:53:05.623Z,5.80
2018-02-22T18:55:33.881Z,5.80
2018-02-22T18:58:02.161Z,5.73
2018-02-22T19:00:30.448Z,6.78
2018-02-22T19:02:58.725Z,5.90
2018-02-22T19:05:27.025Z,6.50
2018-02-22T19:07:55.332Z,6.00
2018-02-22T19:10:23.648Z,6.95
2018-02-22T19:12:51.904Z,6.80
2018-02-22T19:15:20.201Z,6.60
2018-02-22T19:17:48.490Z,6.43
2018-02-22T19:20:16.781Z,7.30
2018-02-22T19:22:45.068Z,6.80
2018-02-22T19:25:13.424Z,7.10
2018-02-22T19:27:41.697Z,6.35
2018-02-22T19:30:10.264Z,6.90
2018-02-22T19:32:38.580Z,7.17
2018-02-22T19:35:06.851Z,6.75
2018-02-22T19:37:35.987Z,5.97
2018-02-22T19:40:04.254Z,6.70
2018-02-22T19:42:32.550Z,6.90
2018-02-22T19:45:00.813Z,6.20
2018-02-22T19:47:29.092Z,6.47
2018-02-22T19:49:57.399Z,6.43
2018-02-22T19:52:25.668Z,6.27
2018-02-22T19:54:53.966Z,6.00
2018-02-22T19:57:22.261Z,6.37
2018-02-22T19:59:50.544Z,6.73
2018-02-22T20:02:18.807Z,6.50
2018-02-22T20:04:47.319Z,6.70
2018-02-22T20:07:15.619Z,6.70
2018-02-22T20:09:43.879Z,6.77
2018-02-22T20:12:12.162Z,7.47
2018-02-22T20:14:40.442Z,7.17
2018-02-22T20:17:08.790Z,5.97
2018-02-22T20:19:37.048Z,7.23
2018-02-22T20:22:05.356Z,6.10
2018-02-22T20:24:33.643Z,6.10
2018-02-22T20:27:03.088Z,6.80
2018-02-22T20:29:31.371Z,6.00
2018-02-22T20:31:59.666Z,6.13
2018-02-22T20:34:27.953Z,6.70
2018-02-22T20:36:56.242Z,6.10
2018-02-22T20:39:24.544Z,5.73
2018-02-22T20:41:52.831Z,6.27
2018-02-22T20:44:21.115Z,6.30
2018-02-22T20:46:49.519Z,6.30
2018-02-22T20:49:17.797Z,6.00
2018-02-22T20:51:49.065Z,6.30
2018-02-22T20:54:17.345Z,6.30
2018-02-22T20:56:45.683Z,6.13
2018-02-22T20:59:13.976Z,5.85
2018-02-22T21:01:42.261Z,5.93
2018-02-22T21:04:11.753Z,6.30
2018-02-22T21:06:40.577Z,5.73
2018-02-22T21:09:08.902Z,5.90
2018-02-22T21:11:37.284Z,6.22
2018-02-22T21:14:05.565Z,6.33
2018-02-22T21:16:33.894Z,6.70
2018-02-22T21:19:02.198Z,6.63
2018-02-22T21:21:30.526Z,5.80
2018-02-22T21:23:58.787Z,5.80
2018-02-22T21:26:27.096Z,6.37
2018-02-22T21:28:55.388Z,5.57
2018-02-22T21:31:23.648Z,6.47
2018-02-22T21:33:51.944Z,6.45
2018-02-22T21:36:20.205Z,5.72
2018-02-22T21:38:48.511Z,5.77
2018-02-22T21:41:16.815Z,5.87
2018-02-22T21:43:45.183Z,6.63
2018-02-22T21:46:13.488Z,6.40
2018-02-22T21:48:41.759Z,6.30
2018-02-22T21:51:10.043Z,6.70
2018-02-22T21:53:38.314Z,6.37
2018-02-22T21:56:06.636Z,6.40
2018-02-22T21:58:34.878Z,6.27
2018-02-22T22:01:03.166Z,6.53
2018-02-22T22:03:31.444Z,5.97
2018-02-22T22:05:59.805Z,5.67
2018-02-22T22:08:28.085Z,6.30
2018-02-22T22:10:56.366Z,5.87
2018-02-22T22:13:24.625Z,6.23
2018-02-22T22:15:52.916Z,6.60
2018-02-22T22:18:21.184Z,6.40
2018-02-22T22:20:49.496Z,6.17
2018-02-22T22:23:17.855Z,6.27
2018-02-22T22:25:46.167Z,5.63
2018-02-22T22:28:14.494Z,6.72
2018-02-22T22:30:42.776Z,6.77
2018-02-22T22:33:11.068Z,5.50
2018-02-22T22:35:39.320Z,6.20
2018-02-22T22:38:07.680Z,6.50
2018-02-22T22:40:35.932Z,5.57
2018-02-22T22:43:04.920Z,6.50
2018-02-22T22:45:33.258Z,5.93
2018-02-22T22:48:01.534Z,6.03
2018-02-22T22:50:29.786Z,6.03
2018-02-22T22:52:58.076Z,6.30
2018-02-22T22:55:26.368Z,5.50
2018-02-22T22:57:54.647Z,6.50
2018-02-22T23:00:22.921Z,6.57
2018-02-22T23:02:51.171Z,6.70
2018-02-22T23:05:19.467Z,5.75
2018-02-22T23:07:47.727Z,6.37
2018-02-22T23:10:16.031Z,6.20
2018-02-22T23:12:44.267Z,6.70
2018-02-22T23:15:12.584Z,6.12
2018-02-22T23:17:40.849Z,6.43
2018-02-22T23:20:09.103Z,6.26
2018-02-22T23:22:37.380Z,6.17
2018-02-22T23:25:05.641Z,6.50
2018-02-22T23:27:33.931Z,7.20
2018-02-22T23:30:02.207Z,7.20
2018-02-22T23:32:30.511Z,5.78
2018-02-22T23:34:58.827Z,6.50
2018-02-22T23:37:27.111Z,6.93
2018-02-22T23:39:55.375Z,6.70
2018-02-22T23:42:24.475Z,6.90
2018-02-22T23:44:52.763Z,6.60
2018-02-22T23:47:21.856Z,7.20
2018-02-22T23:49:50.136Z,6.33
2018-02-22T23:52:18.463Z,6.85
2018-02-22T23:54:46.728Z,7.10
2018-02-22T23:57:14.990Z,6.33
2018-02-22T23:59:43.296Z,6.73
